DECLE EDFM-EDRY
Flight info
| Callsign | DECLE |
|---|---|
| Flight time | 0h -12m |
| Altitude | 5000 |
| Route | NA |
| Aircraft | C152/L-DOV/C |
Departure
| Time | 2026-05-08 18:47 |
|---|---|
| Airport | Mannheim-City Airport (EDFM) |
Arrival
| Time | 2026-05-08 18:35 |
|---|---|
| Airport | Speyer Airfield (EDRY) |
| Time | Latitude | Longitude | Altitude | Speed | Heading |
|---|---|---|---|---|---|
| 2026-05-08 18:34 | 49.47561 | 8.52030 | 314 ft | 0 kts | 183° |
| 2026-05-08 18:40 | 49.47540 | 8.52049 | 314 ft | 7 kts | 89° |
| 2026-05-08 18:41 | 49.47542 | 8.52131 | 313 ft | 8 kts | 97° |
| 2026-05-08 18:41 | 49.47506 | 8.52173 | 313 ft | 9 kts | 188° |
| 2026-05-08 18:41 | 49.47440 | 8.52167 | 313 ft | 10 kts | 191° |
| 2026-05-08 18:41 | 49.47366 | 8.52159 | 313 ft | 10 kts | 181° |
| 2026-05-08 18:42 | 49.47343 | 8.52156 | 313 ft | 0 kts | 181° |
| 2026-05-08 18:42 | 49.47334 | 8.52156 | 313 ft | 7 kts | 183° |
| 2026-05-08 18:42 | 49.47255 | 8.52149 | 313 ft | 9 kts | 199° |
| 2026-05-08 18:43 | 49.47226 | 8.52126 | 313 ft | 7 kts | 212° |
| 2026-05-08 18:43 | 49.47199 | 8.52034 | 313 ft | 13 kts | 274° |
| 2026-05-08 18:43 | 49.47206 | 8.51851 | 313 ft | 21 kts | 274° |
| 2026-05-08 18:43 | 49.47214 | 8.51600 | 313 ft | 24 kts | 271° |
| 2026-05-08 18:44 | 49.47222 | 8.51341 | 313 ft | 24 kts | 272° |
| 2026-05-08 18:44 | 49.47230 | 8.51088 | 313 ft | 23 kts | 277° |
| 2026-05-08 18:44 | 49.47240 | 8.50843 | 313 ft | 21 kts | 271° |
| 2026-05-08 18:44 | 49.47249 | 8.50748 | 313 ft | 0 kts | 303° |
| 2026-05-08 18:45 | 49.47262 | 8.50716 | 313 ft | 12 kts | 302° |
| 2026-05-08 18:46 | 49.47293 | 8.50666 | 314 ft | 0 kts | 36° |
| 2026-05-08 18:46 | 49.47297 | 8.50757 | 314 ft | 24 kts | 91° |
| 2026-05-08 18:46 | 49.47275 | 8.51286 | 320 ft | 71 kts | 96° |
| 2026-05-08 18:46 | 49.47226 | 8.52046 | 502 ft | 72 kts | 92° |
| 2026-05-08 18:47 | 49.47032 | 8.52754 | 654 ft | 87 kts | 150° |
| 2026-05-08 18:47 | 49.46482 | 8.52315 | 693 ft | 104 kts | 240° |
| 2026-05-08 18:47 | 49.46096 | 8.51430 | 891 ft | 98 kts | 222° |
| 2026-05-08 18:47 | 49.45454 | 8.51112 | 1012 ft | 99 kts | 175° |
| 2026-05-08 18:48 | 49.44776 | 8.51249 | 1106 ft | 98 kts | 170° |
| 2026-05-08 18:48 | 49.44085 | 8.51375 | 1191 ft | 96 kts | 171° |
| 2026-05-08 18:48 | 49.43434 | 8.51510 | 1293 ft | 96 kts | 170° |
| 2026-05-08 18:48 | 49.42750 | 8.51640 | 1372 ft | 95 kts | 173° |
| 2026-05-08 18:49 | 49.42090 | 8.51565 | 1546 ft | 94 kts | 186° |
| 2026-05-08 18:49 | 49.41466 | 8.51398 | 1704 ft | 93 kts | 183° |
| 2026-05-08 18:49 | 49.40833 | 8.51231 | 1861 ft | 92 kts | 188° |
| 2026-05-08 18:49 | 49.40212 | 8.50930 | 1972 ft | 95 kts | 194° |
| 2026-05-08 18:50 | 49.39585 | 8.50508 | 2054 ft | 99 kts | 200° |
| 2026-05-08 18:50 | 49.38965 | 8.50060 | 2038 ft | 103 kts | 201° |
| 2026-05-08 18:50 | 49.38333 | 8.49637 | 2136 ft | 95 kts | 199° |
| 2026-05-08 18:50 | 49.37708 | 8.49181 | 2114 ft | 103 kts | 203° |
| 2026-05-08 18:51 | 49.37082 | 8.48657 | 2109 ft | 103 kts | 205° |
| 2026-05-08 18:51 | 49.36437 | 8.48271 | 2165 ft | 95 kts | 184° |
| 2026-05-08 18:51 | 49.35781 | 8.48313 | 2153 ft | 95 kts | 160° |
| 2026-05-08 18:51 | 49.35215 | 8.48733 | 2187 ft | 89 kts | 137° |
| 2026-05-08 18:52 | 49.34803 | 8.49427 | 2241 ft | 86 kts | 116° |
| 2026-05-08 18:52 | 49.34524 | 8.50224 | 2293 ft | 86 kts | 115° |
| 2026-05-08 18:52 | 49.34199 | 8.50989 | 2329 ft | 86 kts | 124° |
| 2026-05-08 18:52 | 49.33685 | 8.51529 | 2291 ft | 96 kts | 155° |
| 2026-05-08 18:53 | 49.33031 | 8.51648 | 2354 ft | 95 kts | 178° |
| 2026-05-08 18:53 | 49.32372 | 8.51439 | 2361 ft | 100 kts | 193° |
| 2026-05-08 18:53 | 49.31744 | 8.50946 | 2350 ft | 106 kts | 218° |
| 2026-05-08 18:53 | 49.31270 | 8.50061 | 2297 ft | 108 kts | 230° |
| 2026-05-08 18:54 | 49.30740 | 8.49320 | 2335 ft | 101 kts | 207° |
| 2026-05-08 18:54 | 49.30091 | 8.48922 | 2402 ft | 99 kts | 187° |
| 2026-05-08 18:54 | 49.29446 | 8.48651 | 2457 ft | 96 kts | 199° |
| 2026-05-08 18:54 | 49.28850 | 8.48068 | 2334 ft | 103 kts | 220° |
| 2026-05-08 18:55 | 49.28187 | 8.46150 | 2203 ft | 102 kts | 266° |
| 2026-05-08 18:55 | 49.28227 | 8.45061 | 2112 ft | 101 kts | 288° |
| 2026-05-08 18:55 | 49.28488 | 8.44107 | 2084 ft | 98 kts | 307° |
| 2026-05-08 18:56 | 49.28872 | 8.43256 | 2136 ft | 94 kts | 316° |
| 2026-05-08 18:56 | 49.29318 | 8.42515 | 2125 ft | 95 kts | 323° |
| 2026-05-08 18:56 | 49.29800 | 8.41835 | 2197 ft | 94 kts | 326° |
| 2026-05-08 18:56 | 49.30282 | 8.41186 | 2259 ft | 95 kts | 326° |
| 2026-05-08 18:57 | 49.30767 | 8.40520 | 2316 ft | 92 kts | 322° |
| 2026-05-08 18:57 | 49.31079 | 8.40032 | 2356 ft | 96 kts | 320° |
| 2026-05-08 18:57 | 49.31635 | 8.39099 | 2286 ft | 84 kts | 319° |
| 2026-05-08 18:57 | 49.31898 | 8.38335 | 2163 ft | 92 kts | 281° |
| 2026-05-08 18:58 | 49.31862 | 8.37367 | 2154 ft | 89 kts | 255° |
| 2026-05-08 18:58 | 49.31561 | 8.36532 | 2107 ft | 90 kts | 227° |
| 2026-05-08 18:58 | 49.31011 | 8.36017 | 2078 ft | 96 kts | 188° |
| 2026-05-08 18:58 | 49.30375 | 8.36093 | 2133 ft | 90 kts | 146° |
| 2026-05-08 18:59 | 49.29990 | 8.36779 | 2177 ft | 83 kts | 104° |
| 2026-05-08 18:59 | 49.29911 | 8.37650 | 2128 ft | 80 kts | 88° |
| 2026-05-08 18:59 | 49.29921 | 8.38456 | 1963 ft | 75 kts | 84° |
| 2026-05-08 18:59 | 49.29967 | 8.39282 | 1837 ft | 80 kts | 81° |
| 2026-05-08 19:00 | 49.30038 | 8.40120 | 1689 ft | 76 kts | 79° |
| 2026-05-08 19:00 | 49.30117 | 8.40904 | 1493 ft | 73 kts | 76° |
| 2026-05-08 19:00 | 49.30217 | 8.41711 | 1301 ft | 81 kts | 78° |
| 2026-05-08 19:00 | 49.30313 | 8.42577 | 1154 ft | 81 kts | 80° |
| 2026-05-08 19:01 | 49.30348 | 8.43438 | 1018 ft | 79 kts | 88° |
| 2026-05-08 19:01 | 49.30142 | 8.44125 | 988 ft | 73 kts | 142° |
| 2026-05-08 19:01 | 49.29628 | 8.44345 | 875 ft | 81 kts | 172° |
| 2026-05-08 19:01 | 49.29104 | 8.44456 | 842 ft | 74 kts | 170° |
| 2026-05-08 19:02 | 49.28637 | 8.44685 | 809 ft | 67 kts | 147° |
| 2026-05-08 19:02 | 49.28314 | 8.45159 | 745 ft | 64 kts | 107° |
| 2026-05-08 19:02 | 49.28405 | 8.45764 | 691 ft | 63 kts | 36° |
| 2026-05-08 19:02 | 49.28817 | 8.45835 | 580 ft | 59 kts | 354° |
| 2026-05-08 19:03 | 49.29204 | 8.45700 | 485 ft | 56 kts | 346° |
| 2026-05-08 19:03 | 49.29577 | 8.45543 | 376 ft | 56 kts | 349° |
| 2026-05-08 19:03 | 49.29935 | 8.45395 | 321 ft | 48 kts | 349° |
| 2026-05-08 19:03 | 49.30269 | 8.45264 | 307 ft | 65 kts | 345° |
| 2026-05-08 19:04 | 49.30719 | 8.45062 | 465 ft | 72 kts | 348° |
| 2026-05-08 19:04 | 49.31214 | 8.44907 | 643 ft | 72 kts | 0° |
| 2026-05-08 19:04 | 49.31621 | 8.45302 | 754 ft | 77 kts | 62° |
| 2026-05-08 19:04 | 49.31647 | 8.46136 | 895 ft | 83 kts | 97° |
| 2026-05-08 19:05 | 49.31482 | 8.47009 | 1032 ft | 88 kts | 109° |
| 2026-05-08 19:05 | 49.31193 | 8.47834 | 1253 ft | 85 kts | 116° |
| 2026-05-08 19:05 | 49.30918 | 8.48638 | 1389 ft | 86 kts | 104° |
| 2026-05-08 19:05 | 49.30816 | 8.49516 | 1568 ft | 85 kts | 95° |
| 2026-05-08 19:06 | 49.30689 | 8.50415 | 1693 ft | 88 kts | 102° |